createdAt,value
2022-12-17T00:02:29.368Z,6.47
2022-12-17T00:05:14.712Z,6.47
2022-12-17T00:08:05.476Z,6.45
2022-12-17T00:10:50.775Z,6.50
2022-12-17T00:13:38.459Z,6.50
2022-12-17T00:16:30.321Z,6.54
2022-12-17T00:19:17.662Z,6.60
2022-12-17T00:22:02.987Z,6.66
2022-12-17T00:24:48.820Z,6.67
2022-12-17T00:27:34.049Z,6.69
2022-12-17T00:30:18.620Z,6.66
2022-12-17T00:33:03.760Z,6.66
2022-12-17T00:35:50.655Z,6.64
2022-12-17T00:38:36.999Z,6.69
2022-12-17T00:41:23.217Z,6.73
2022-12-17T00:44:08.415Z,6.75
2022-12-17T00:46:54.118Z,6.75
2022-12-17T00:49:39.645Z,6.74
2022-12-17T00:52:26.431Z,6.77
2022-12-17T00:55:11.705Z,6.77
2022-12-17T00:57:57.330Z,6.74
2022-12-17T01:00:42.662Z,6.70
2022-12-17T01:03:30.144Z,6.75
2022-12-17T01:06:19.656Z,6.65
2022-12-17T01:09:06.401Z,6.49
2022-12-17T01:11:51.928Z,6.45
2022-12-17T01:14:37.516Z,6.42
2022-12-17T01:17:22.994Z,6.45
2022-12-17T01:20:08.577Z,6.50
2022-12-17T01:23:08.747Z,6.56
2022-12-17T01:25:56.311Z,6.57
2022-12-17T01:28:42.656Z,6.57
2022-12-17T01:31:33.123Z,6.53
2022-12-17T01:34:20.270Z,6.50
2022-12-17T01:37:04.663Z,6.46
2022-12-17T01:39:50.059Z,6.41
2022-12-17T01:42:37.030Z,6.35
2022-12-17T01:45:23.204Z,6.29
2022-12-17T01:48:11.552Z,6.26
2022-12-17T01:51:00.527Z,6.15
2022-12-17T01:53:49.278Z,6.06
2022-12-17T01:56:35.453Z,5.95
2022-12-17T01:59:24.940Z,5.89
2022-12-17T02:02:10.774Z,5.88
2022-12-17T02:04:56.793Z,5.88
2022-12-17T02:07:54.789Z,5.82
2022-12-17T02:10:43.925Z,5.85
2022-12-17T02:13:37.041Z,5.91
2022-12-17T02:16:29.733Z,5.98
2022-12-17T02:19:19.335Z,6.02
2022-12-17T02:22:12.440Z,6.07
2022-12-17T02:25:04.934Z,6.12
2022-12-17T02:28:05.390Z,6.16
2022-12-17T02:30:51.654Z,6.14
2022-12-17T02:33:37.947Z,6.10
2022-12-17T02:36:25.532Z,6.05
2022-12-17T02:39:11.007Z,6.03
2022-12-17T02:42:03.194Z,6.00
2022-12-17T02:44:52.945Z,6.04
2022-12-17T02:47:41.563Z,6.10
2022-12-17T02:50:28.307Z,6.09
2022-12-17T02:53:17.360Z,6.10
2022-12-17T02:56:02.959Z,6.07
2022-12-17T02:58:48.547Z,6.02
2022-12-17T03:01:35.817Z,5.95
2022-12-17T03:04:21.664Z,5.96
2022-12-17T03:07:07.635Z,5.96
2022-12-17T03:09:53.417Z,6.01
2022-12-17T03:12:38.917Z,5.94
2022-12-17T03:15:24.900Z,5.90
2022-12-17T03:18:12.581Z,5.89
2022-12-17T03:20:57.960Z,5.87
2022-12-17T03:23:43.405Z,5.92
2022-12-17T03:26:29.146Z,5.99
2022-12-17T03:29:14.650Z,5.96
2022-12-17T03:32:00.436Z,5.94
2022-12-17T03:34:47.278Z,6.02
2022-12-17T03:37:32.736Z,6.12
2022-12-17T03:40:18.170Z,6.24
2022-12-17T03:43:03.575Z,6.36
2022-12-17T03:45:49.038Z,6.46
2022-12-17T03:48:34.696Z,6.48
2022-12-17T03:51:22.202Z,6.49
2022-12-17T03:54:07.789Z,6.49
2022-12-17T03:56:53.070Z,6.44
2022-12-17T03:59:38.628Z,6.41
2022-12-17T04:02:24.756Z,6.40
2022-12-17T04:05:11.802Z,6.35
2022-12-17T04:08:01.956Z,6.33
2022-12-17T04:10:47.843Z,6.32
2022-12-17T04:13:38.830Z,6.24
2022-12-17T04:16:26.251Z,6.20
2022-12-17T04:19:12.121Z,6.22
2022-12-17T04:21:57.908Z,6.25
2022-12-17T04:24:43.906Z,6.32
2022-12-17T04:27:29.386Z,6.34
2022-12-17T04:30:14.590Z,6.38
2022-12-17T04:33:11.398Z,6.44
2022-12-17T04:35:53.269Z,6.39
2022-12-17T04:38:38.738Z,6.31
2022-12-17T04:41:25.693Z,6.21
2022-12-17T04:44:11.127Z,6.16
2022-12-17T04:46:56.538Z,6.08
2022-12-17T04:49:42.389Z,6.07
2022-12-17T04:52:27.957Z,5.97
2022-12-17T04:55:13.247Z,5.87
2022-12-17T04:58:00.244Z,5.82
2022-12-17T05:00:46.050Z,5.79
2022-12-17T05:03:34.189Z,5.82
2022-12-17T05:06:20.461Z,5.86
2022-12-17T05:09:06.305Z,5.88
2022-12-17T05:11:52.048Z,5.94
2022-12-17T05:14:39.180Z,5.96
2022-12-17T05:17:25.059Z,5.96
2022-12-17T05:20:21.965Z,6.00
2022-12-17T05:23:07.504Z,6.07
2022-12-17T05:25:53.232Z,6.10
2022-12-17T05:28:39.107Z,6.08
2022-12-17T05:31:25.875Z,6.12
2022-12-17T05:34:11.326Z,6.14
2022-12-17T05:36:56.717Z,6.17
2022-12-17T05:39:42.617Z,6.16
2022-12-17T05:42:27.800Z,6.20
2022-12-17T05:45:13.380Z,6.19
2022-12-17T05:48:00.244Z,6.21
2022-12-17T05:50:48.289Z,6.26
2022-12-17T05:53:34.266Z,6.32
2022-12-17T05:56:20.225Z,6.36
2022-12-17T05:59:05.904Z,6.39
2022-12-17T06:01:51.170Z,6.40
2022-12-17T06:04:38.182Z,6.36
2022-12-17T06:07:23.397Z,6.33
2022-12-17T06:10:08.712Z,6.34
2022-12-17T06:12:54.341Z,6.33
2022-12-17T06:15:39.512Z,6.30
2022-12-17T06:18:30.442Z,6.24
2022-12-17T06:21:17.404Z,6.20
2022-12-17T06:24:02.955Z,6.16
2022-12-17T06:26:48.756Z,6.12
2022-12-17T06:29:34.496Z,6.12
2022-12-17T06:32:19.762Z,6.13
2022-12-17T06:35:05.427Z,6.15
2022-12-17T06:37:52.383Z,6.19
2022-12-17T06:40:37.516Z,6.24
2022-12-17T06:43:23.126Z,6.24
2022-12-17T06:46:18.936Z,6.27
2022-12-17T06:49:10.321Z,6.31
2022-12-17T06:51:55.610Z,6.33
2022-12-17T06:54:42.401Z,6.36
2022-12-17T06:57:28.226Z,6.41
2022-12-17T07:00:13.879Z,6.40
2022-12-17T07:02:59.433Z,6.39
2022-12-17T07:05:45.530Z,6.40
2022-12-17T07:08:31.370Z,6.41
2022-12-17T07:11:19.816Z,6.43
2022-12-17T07:14:05.387Z,6.46
2022-12-17T07:16:59.149Z,6.49
2022-12-17T07:19:44.435Z,6.50
2022-12-17T07:22:29.849Z,6.49
2022-12-17T07:25:15.065Z,6.47
2022-12-17T07:28:02.097Z,6.48
2022-12-17T07:30:52.656Z,6.47
2022-12-17T07:33:41.397Z,6.51
2022-12-17T07:36:26.842Z,6.53
2022-12-17T07:39:12.072Z,6.55
2022-12-17T07:41:57.779Z,6.56
2022-12-17T07:44:44.752Z,6.58
2022-12-17T07:47:30.179Z,6.62
2022-12-17T07:50:15.530Z,6.64
2022-12-17T07:53:01.133Z,6.66
2022-12-17T07:55:46.957Z,6.66
2022-12-17T07:58:32.547Z,6.67
2022-12-17T08:01:20.567Z,6.67
2022-12-17T08:04:06.017Z,6.68
2022-12-17T08:06:55.125Z,6.68
2022-12-17T08:09:43.897Z,6.73
2022-12-17T08:12:29.130Z,6.76
2022-12-17T08:15:14.638Z,6.81
2022-12-17T08:18:01.930Z,6.82
2022-12-17T08:20:47.719Z,6.83
2022-12-17T08:23:33.398Z,6.85
2022-12-17T08:26:19.259Z,6.86
2022-12-17T08:29:04.652Z,6.92
2022-12-17T08:31:50.036Z,6.92
2022-12-17T08:34:37.166Z,6.90
2022-12-17T08:37:22.593Z,6.86
2022-12-17T08:40:08.138Z,6.82
2022-12-17T08:42:53.658Z,6.83
2022-12-17T08:45:39.033Z,6.86
2022-12-17T08:48:25.814Z,6.91
2022-12-17T08:51:12.914Z,6.94
2022-12-17T08:53:58.292Z,7.01
2022-12-17T08:56:44.430Z,7.04
2022-12-17T08:59:29.619Z,7.07
2022-12-17T09:02:15.351Z,7.05
2022-12-17T09:05:01.106Z,7.07
2022-12-17T09:07:48.120Z,7.08
2022-12-17T09:10:33.651Z,7.11
2022-12-17T09:13:20.603Z,7.17
2022-12-17T09:16:10.504Z,7.19
2022-12-17T09:18:56.023Z,7.15
2022-12-17T09:21:41.451Z,7.16
2022-12-17T09:24:28.736Z,7.20
2022-12-17T09:27:14.457Z,7.29
2022-12-17T09:30:00.314Z,7.39
2022-12-17T09:32:45.862Z,7.46
2022-12-17T09:35:31.629Z,7.51
2022-12-17T09:38:13.485Z,7.58
2022-12-17T09:41:04.855Z,7.63
2022-12-17T09:43:58.431Z,7.72
2022-12-17T09:46:51.686Z,7.77
2022-12-17T09:49:40.148Z,7.74
2022-12-17T09:52:37.884Z,7.69
2022-12-17T09:55:38.144Z,7.68
2022-12-17T09:58:32.811Z,7.79
2022-12-17T10:01:18.245Z,7.95
2022-12-17T10:04:05.648Z,7.88
2022-12-17T10:06:52.019Z,7.88
2022-12-17T10:09:38.347Z,7.96
2022-12-17T10:12:32.323Z,7.92
2022-12-17T10:15:19.416Z,7.90
2022-12-17T10:18:04.971Z,7.99
2022-12-17T10:20:55.340Z,8.06
2022-12-17T10:23:42.895Z,8.08
2022-12-17T10:26:28.349Z,8.14
2022-12-17T10:29:22.889Z,8.17
2022-12-17T10:32:09.578Z,8.19
2022-12-17T10:34:59.248Z,8.14
2022-12-17T10:37:50.378Z,8.17
2022-12-17T10:40:42.467Z,8.26
2022-12-17T10:43:48.523Z,8.23
2022-12-17T10:46:44.293Z,8.29
2022-12-17T10:49:34.455Z,8.19
2022-12-17T10:52:22.834Z,7.97
2022-12-17T10:55:17.346Z,7.64
2022-12-17T10:58:02.848Z,7.41
2022-12-17T11:00:50.867Z,7.11
2022-12-17T11:03:52.426Z,6.80
2022-12-17T11:06:44.785Z,6.53
2022-12-17T11:09:38.392Z,6.35
2022-12-17T11:12:30.520Z,6.21
2022-12-17T11:15:21.769Z,6.16
2022-12-17T11:18:11.498Z,6.11
2022-12-17T11:21:06.127Z,6.08
2022-12-17T11:23:56.177Z,6.16
2022-12-17T11:26:43.831Z,6.30
2022-12-17T11:29:31.793Z,6.49
2022-12-17T11:32:45.701Z,6.69
2022-12-17T11:35:37.973Z,6.85
2022-12-17T11:38:34.798Z,7.04
2022-12-17T11:41:31.782Z,7.17
2022-12-17T11:44:23.354Z,7.39
2022-12-17T11:47:19.869Z,7.61
2022-12-17T11:50:22.426Z,7.71
2022-12-17T11:53:15.927Z,7.74
2022-12-17T11:56:19.628Z,7.81
2022-12-17T11:59:11.137Z,7.85
2022-12-17T12:02:04.697Z,7.84
2022-12-17T12:05:07.021Z,7.84
2022-12-17T12:08:00.838Z,7.92
2022-12-17T12:10:54.787Z,7.98
2022-12-17T12:13:48.813Z,7.90
2022-12-17T12:16:47.399Z,7.78
2022-12-17T12:19:40.095Z,7.71
2022-12-17T12:22:32.912Z,7.66
2022-12-17T12:25:39.822Z,7.65
2022-12-17T12:28:39.113Z,7.67
2022-12-17T12:31:34.296Z,7.66
2022-12-17T12:34:25.699Z,7.70
2022-12-17T12:37:11.895Z,7.75
2022-12-17T12:40:05.165Z,7.77
2022-12-17T12:42:55.406Z,7.78
2022-12-17T12:45:50.711Z,7.78
2022-12-17T12:48:49.340Z,7.76
2022-12-17T12:51:42.145Z,7.72
2022-12-17T12:54:46.389Z,7.67
2022-12-17T12:57:50.177Z,7.63
2022-12-17T13:00:56.733Z,7.65
2022-12-17T13:03:47.470Z,7.68
2022-12-17T13:06:36.575Z,7.75
2022-12-17T13:09:21.892Z,7.83
2022-12-17T13:11:52.440Z,7.86
2022-12-17T13:14:24.131Z,7.92
2022-12-17T13:16:56.211Z,7.99
2022-12-17T13:19:37.043Z,8.08
2022-12-17T13:22:13.153Z,8.13
2022-12-17T13:24:44.072Z,8.20
2022-12-17T13:27:30.468Z,8.26
2022-12-17T13:29:59.139Z,8.31
2022-12-17T13:32:32.128Z,8.34
2022-12-17T13:35:18.845Z,8.40
2022-12-17T13:37:57.289Z,8.42
2022-12-17T13:40:38.348Z,8.51
2022-12-17T13:43:06.593Z,8.54
2022-12-17T13:45:40.195Z,8.56
2022-12-17T13:48:21.598Z,8.47
2022-12-17T13:50:56.377Z,8.34
2022-12-17T13:53:24.461Z,8.17
2022-12-17T13:55:55.816Z,8.07
2022-12-17T13:58:26.271Z,8.06
2022-12-17T14:01:05.994Z,8.04
2022-12-17T14:04:04.304Z,8.05
2022-12-17T14:06:23.715Z,8.02
2022-12-17T14:08:55.001Z,8.07
2022-12-17T14:11:42.654Z,8.06
2022-12-17T14:14:21.016Z,8.03
2022-12-17T14:16:51.133Z,7.97
2022-12-17T14:19:23.611Z,8.00
2022-12-17T14:21:52.236Z,8.02
2022-12-17T14:24:27.062Z,8.00
2022-12-17T14:26:58.352Z,7.98
2022-12-17T14:29:28.967Z,8.02
2022-12-17T14:31:58.556Z,8.04
2022-12-17T14:34:26.827Z,8.02
2022-12-17T14:36:57.743Z,7.97
2022-12-17T14:39:28.913Z,7.90
2022-12-17T14:42:17.843Z,7.94
2022-12-17T14:44:54.493Z,7.89
2022-12-17T14:47:24.737Z,7.88
2022-12-17T14:50:02.653Z,7.79
2022-12-17T14:52:42.676Z,7.73
2022-12-17T14:55:24.520Z,7.71
2022-12-17T14:58:08.734Z,7.68
2022-12-17T15:00:39.291Z,7.62
2022-12-17T15:03:07.562Z,7.55
2022-12-17T15:05:36.584Z,7.49
2022-12-17T15:08:06.212Z,7.42
2022-12-17T15:10:34.269Z,7.45
2022-12-17T15:13:03.763Z,7.47
2022-12-17T15:15:31.793Z,7.47
2022-12-17T15:18:00.035Z,7.46
2022-12-17T15:20:28.336Z,7.40
2022-12-17T15:22:56.393Z,7.33
2022-12-17T15:25:24.512Z,7.31
2022-12-17T15:27:52.729Z,7.30
2022-12-17T15:30:22.135Z,7.26
2022-12-17T15:32:50.277Z,7.20
2022-12-17T15:35:18.328Z,7.18
2022-12-17T15:37:46.291Z,7.20
2022-12-17T15:40:14.444Z,7.27
2022-12-17T15:43:05.833Z,7.19
2022-12-17T15:45:35.831Z,7.13
2022-12-17T15:48:03.935Z,7.12
2022-12-17T15:50:31.965Z,7.07
2022-12-17T15:53:00.037Z,7.09
2022-12-17T15:55:28.341Z,7.13
2022-12-17T15:57:56.505Z,7.11
2022-12-17T16:00:25.600Z,7.12
2022-12-17T16:02:55.244Z,7.17
2022-12-17T16:05:23.891Z,7.14
2022-12-17T16:07:52.632Z,7.08
2022-12-17T16:10:21.049Z,7.00
2022-12-17T16:12:49.113Z,6.94
2022-12-17T16:15:17.348Z,6.87
2022-12-17T16:17:45.392Z,6.83
2022-12-17T16:20:14.983Z,6.81
2022-12-17T16:22:43.031Z,6.81
2022-12-17T16:25:11.298Z,6.77
2022-12-17T16:27:39.708Z,6.79
2022-12-17T16:30:09.662Z,6.76
2022-12-17T16:32:37.664Z,6.68
2022-12-17T16:35:06.552Z,6.61
2022-12-17T16:37:35.994Z,6.53
2022-12-17T16:40:04.398Z,6.47
2022-12-17T16:42:32.386Z,6.43
2022-12-17T16:45:00.457Z,6.44
2022-12-17T16:47:28.570Z,6.40
2022-12-17T16:49:56.708Z,6.35
2022-12-17T16:52:24.932Z,6.37
2022-12-17T16:54:54.561Z,6.39
2022-12-17T16:57:22.666Z,6.36
2022-12-17T16:59:50.954Z,6.40
2022-12-17T17:02:19.317Z,6.41
2022-12-17T17:04:47.530Z,6.34
2022-12-17T17:07:15.553Z,6.28
2022-12-17T17:09:43.630Z,6.24
2022-12-17T17:12:13.689Z,6.19
2022-12-17T17:14:43.982Z,6.14
2022-12-17T17:17:12.122Z,6.12
2022-12-17T17:19:40.231Z,6.13
2022-12-17T17:22:08.330Z,6.13
2022-12-17T17:24:36.424Z,6.13
2022-12-17T17:27:04.511Z,6.15
2022-12-17T17:29:33.872Z,6.13
2022-12-17T17:32:10.444Z,6.14
2022-12-17T17:34:39.747Z,6.19
2022-12-17T17:37:07.819Z,6.20
2022-12-17T17:39:35.905Z,6.12
2022-12-17T17:42:04.269Z,6.14
2022-12-17T17:44:33.664Z,6.16
2022-12-17T17:47:01.839Z,6.07
2022-12-17T17:49:30.128Z,5.97
2022-12-17T17:52:13.591Z,5.85
2022-12-17T17:54:42.040Z,5.79
2022-12-17T17:57:11.038Z,5.76
2022-12-17T17:59:40.680Z,5.71
2022-12-17T18:02:10.907Z,5.66
2022-12-17T18:04:39.956Z,5.63
2022-12-17T18:09:56.148Z,5.42
2022-12-17T18:12:41.784Z,5.32
2022-12-17T18:15:14.662Z,5.27
2022-12-17T18:17:43.792Z,5.23
2022-12-17T18:20:12.770Z,5.21
2022-12-17T18:22:41.052Z,5.24
2022-12-17T18:25:09.287Z,5.34
2022-12-17T18:27:37.360Z,5.45
2022-12-17T18:30:06.035Z,5.48
2022-12-17T18:32:35.483Z,5.47
2022-12-17T18:35:03.795Z,5.49
2022-12-17T18:37:31.870Z,5.47
2022-12-17T18:39:59.940Z,5.46
2022-12-17T18:42:45.307Z,5.45
2022-12-17T18:45:13.388Z,5.45
2022-12-17T18:47:44.669Z,5.44
2022-12-17T18:50:13.295Z,5.37
2022-12-17T18:52:41.445Z,5.28
2022-12-17T18:55:10.985Z,5.25
2022-12-17T18:57:39.151Z,5.27
2022-12-17T19:00:08.533Z,5.23
2022-12-17T19:02:36.734Z,5.21
2022-12-17T19:05:06.619Z,5.20
2022-12-17T19:07:34.730Z,5.17
2022-12-17T19:10:02.877Z,5.15
2022-12-17T19:12:31.048Z,5.09
2022-12-17T19:14:59.076Z,4.99
2022-12-17T19:17:27.064Z,4.97
2022-12-17T19:19:55.049Z,4.90
2022-12-17T19:22:24.516Z,4.79
2022-12-17T19:24:52.549Z,4.63
2022-12-17T19:27:20.544Z,4.55
2022-12-17T19:29:49.946Z,4.43
2022-12-17T19:32:18.444Z,4.34
2022-12-17T19:34:46.548Z,4.27
2022-12-17T19:37:14.623Z,4.19
2022-12-17T19:39:44.043Z,4.17
2022-12-17T19:42:24.931Z,4.20
2022-12-17T19:44:53.754Z,4.25
2022-12-17T19:47:24.138Z,4.26
2022-12-17T19:49:52.576Z,4.34
2022-12-17T19:52:20.655Z,4.38
2022-12-17T19:54:50.580Z,4.39
2022-12-17T19:57:18.784Z,4.37
2022-12-17T19:59:46.955Z,4.39
2022-12-17T20:02:17.374Z,4.46
2022-12-17T20:04:45.587Z,4.56
2022-12-17T20:07:13.655Z,4.63
2022-12-17T20:09:44.193Z,4.68
2022-12-17T20:12:14.180Z,4.69
2022-12-17T20:14:42.205Z,4.72
2022-12-17T20:17:11.058Z,4.69
2022-12-17T20:19:39.233Z,4.76
2022-12-17T20:22:07.877Z,4.80
2022-12-17T20:24:37.432Z,4.83
2022-12-17T20:27:05.973Z,4.81
2022-12-17T20:29:35.901Z,4.78
2022-12-17T20:32:04.573Z,4.71
2022-12-17T20:34:32.907Z,4.69
2022-12-17T20:37:01.075Z,4.72
2022-12-17T20:39:29.269Z,4.77
2022-12-17T20:41:57.907Z,4.79
2022-12-17T20:44:26.662Z,4.80
2022-12-17T20:46:56.389Z,4.76
2022-12-17T20:49:24.538Z,4.77
2022-12-17T20:51:52.657Z,4.73
2022-12-17T20:54:21.760Z,4.72
2022-12-17T20:56:50.075Z,4.69
2022-12-17T20:59:19.647Z,4.65
2022-12-17T21:01:53.020Z,4.65
2022-12-17T21:04:26.016Z,4.69
2022-12-17T21:06:54.753Z,4.67
2022-12-17T21:09:25.550Z,4.65
2022-12-17T21:11:53.895Z,4.56
2022-12-17T21:14:22.129Z,4.51
2022-12-17T21:16:50.378Z,4.52
2022-12-17T21:19:20.312Z,4.45
2022-12-17T21:21:50.107Z,4.44
2022-12-17T21:24:18.287Z,4.46
2022-12-17T21:26:48.323Z,4.50
2022-12-17T21:29:17.348Z,4.54
2022-12-17T21:31:47.569Z,4.56
2022-12-17T21:34:18.076Z,4.56
2022-12-17T21:36:46.378Z,4.56
2022-12-17T21:39:17.269Z,4.48
2022-12-17T21:42:07.248Z,4.38
2022-12-17T21:44:36.325Z,4.25
2022-12-17T21:47:04.702Z,4.24
2022-12-17T21:49:33.093Z,4.21
2022-12-17T21:52:02.405Z,4.21
2022-12-17T21:54:32.040Z,4.18
2022-12-17T21:57:00.213Z,4.16
2022-12-17T21:59:28.276Z,4.21
2022-12-17T22:01:57.639Z,4.25
2022-12-17T22:04:26.850Z,4.25
2022-12-17T22:07:00.498Z,4.21
2022-12-17T22:09:58.019Z,4.17
2022-12-17T22:12:50.146Z,4.11
2022-12-17T22:15:18.323Z,4.08
2022-12-17T22:17:47.093Z,4.00
2022-12-17T22:20:16.382Z,3.94
2022-12-17T22:22:45.285Z,3.92
2022-12-17T22:25:15.164Z,3.88
2022-12-17T22:27:43.760Z,3.88
2022-12-17T22:30:32.969Z,3.86
2022-12-17T22:33:02.892Z,3.71
2022-12-17T22:36:58.789Z,3.64
2022-12-17T22:41:53.906Z,3.58
2022-12-17T22:44:33.412Z,3.43
2022-12-17T22:44:43.344Z,3.22
2022-12-17T22:47:11.012Z,3.05
2022-12-17T22:49:41.469Z,2.92
2022-12-17T22:52:12.190Z,2.88
2022-12-17T22:54:40.437Z,2.87
2022-12-17T22:57:30.681Z,2.88
2022-12-17T22:59:58.112Z,2.94
2022-12-17T23:02:26.198Z,2.95
2022-12-17T23:04:54.301Z,2.96
2022-12-17T23:07:25.664Z,2.97
2022-12-17T23:09:58.982Z,3.02
2022-12-17T23:12:46.103Z,2.99
2022-12-17T23:15:14.230Z,2.89
2022-12-17T23:17:42.447Z,2.78
2022-12-17T23:20:11.878Z,2.61
2022-12-17T23:22:40.160Z,2.55
2022-12-17T23:25:08.914Z,2.57
2022-12-17T23:27:38.812Z,2.62
2022-12-17T23:30:08.361Z,2.71
2022-12-17T23:32:36.685Z,2.79
2022-12-17T23:35:05.233Z,2.83
2022-12-17T23:37:39.387Z,2.84
2022-12-17T23:40:09.498Z,2.80
2022-12-17T23:42:39.554Z,2.79
2022-12-17T23:45:11.186Z,2.77
2022-12-17T23:47:39.944Z,2.77
2022-12-17T23:50:10.386Z,2.76
2022-12-17T23:52:39.375Z,2.71
2022-12-17T23:55:08.274Z,2.64
2022-12-17T23:57:36.366Z,2.64
